sensor_id;sensor_type;location;lat;lon;timestamp;P1;durP1;ratioP1;P2;durP2;ratioP2
79017;SDS011;69817;44.694;37.774;2023-05-10T00:00:45;7.35;;;1.38;;
79017;SDS011;69817;44.694;37.774;2023-05-10T00:01:48;7.00;;;1.40;;
79017;SDS011;69817;44.694;37.774;2023-05-10T00:03:51;4.30;;;1.20;;
79017;SDS011;69817;44.694;37.774;2023-05-10T00:04:53;3.72;;;1.10;;
79017;SDS011;69817;44.694;37.774;2023-05-10T00:05:54;6.40;;;1.40;;
79017;SDS011;69817;44.694;37.774;2023-05-10T00:06:56;6.55;;;1.20;;
79017;SDS011;69817;44.694;37.774;2023-05-10T00:07:58;5.05;;;1.10;;
79017;SDS011;69817;44.694;37.774;2023-05-10T00:09:00;5.03;;;1.17;;
79017;SDS011;69817;44.694;37.774;2023-05-10T00:10:02;8.43;;;1.35;;
79017;SDS011;69817;44.694;37.774;2023-05-10T00:11:03;11.00;;;1.35;;
79017;SDS011;69817;44.694;37.774;2023-05-10T00:12:05;7.28;;;1.55;;
79017;SDS011;69817;44.694;37.774;2023-05-10T00:13:07;4.75;;;1.40;;
79017;SDS011;69817;44.694;37.774;2023-05-10T00:14:08;5.03;;;1.20;;
79017;SDS011;69817;44.694;37.774;2023-05-10T00:15:10;5.63;;;1.33;;
79017;SDS011;69817;44.694;37.774;2023-05-10T00:16:12;4.28;;;1.10;;
79017;SDS011;69817;44.694;37.774;2023-05-10T00:17:14;5.03;;;1.20;;
79017;SDS011;69817;44.694;37.774;2023-05-10T00:18:15;4.93;;;1.20;;
79017;SDS011;69817;44.694;37.774;2023-05-10T00:19:17;5.38;;;1.10;;
79017;SDS011;69817;44.694;37.774;2023-05-10T00:20:19;6.25;;;1.33;;
79017;SDS011;69817;44.694;37.774;2023-05-10T00:21:21;6.03;;;1.20;;
79017;SDS011;69817;44.694;37.774;2023-05-10T00:22:22;4.78;;;1.10;;
79017;SDS011;69817;44.694;37.774;2023-05-10T00:23:24;6.10;;;1.20;;
79017;SDS011;69817;44.694;37.774;2023-05-10T00:24:26;6.03;;;1.10;;
79017;SDS011;69817;44.694;37.774;2023-05-10T00:25:28;6.97;;;1.27;;
79017;SDS011;69817;44.694;37.774;2023-05-10T00:26:29;8.60;;;1.25;;
79017;SDS011;69817;44.694;37.774;2023-05-10T00:27:31;6.47;;;1.42;;
79017;SDS011;69817;44.694;37.774;2023-05-10T00:28:33;6.82;;;1.20;;
79017;SDS011;69817;44.694;37.774;2023-05-10T00:29:34;7.88;;;1.30;;
79017;SDS011;69817;44.694;37.774;2023-05-10T00:30:36;5.45;;;1.10;;
79017;SDS011;69817;44.694;37.774;2023-05-10T00:31:37;3.70;;;1.00;;
79017;SDS011;69817;44.694;37.774;2023-05-10T00:32:39;8.45;;;1.30;;
79017;SDS011;69817;44.694;37.774;2023-05-10T00:33:41;4.15;;;1.20;;
79017;SDS011;69817;44.694;37.774;2023-05-10T00:34:43;5.80;;;1.27;;
79017;SDS011;69817;44.694;37.774;2023-05-10T00:35:46;7.55;;;1.30;;
79017;SDS011;69817;44.694;37.774;2023-05-10T00:36:48;5.20;;;1.20;;
79017;SDS011;69817;44.694;37.774;2023-05-10T00:37:49;5.50;;;1.30;;
79017;SDS011;69817;44.694;37.774;2023-05-10T00:38:51;7.65;;;1.30;;
79017;SDS011;69817;44.694;37.774;2023-05-10T00:39:53;8.43;;;1.30;;
79017;SDS011;69817;44.694;37.774;2023-05-10T00:40:54;4.57;;;1.20;;
79017;SDS011;69817;44.694;37.774;2023-05-10T00:42:02;5.25;;;1.20;;
79017;SDS011;69817;44.694;37.774;2023-05-10T00:43:05;3.40;;;1.20;;
79017;SDS011;69817;44.694;37.774;2023-05-10T00:44:07;5.97;;;1.20;;
79017;SDS011;69817;44.694;37.774;2023-05-10T00:45:08;6.95;;;1.30;;
79017;SDS011;69817;44.694;37.774;2023-05-10T00:46:10;4.10;;;1.25;;
79017;SDS011;69817;44.694;37.774;2023-05-10T00:48:15;5.20;;;1.10;;
79017;SDS011;69817;44.694;37.774;2023-05-10T00:49:17;8.02;;;1.40;;
79017;SDS011;69817;44.694;37.774;2023-05-10T00:50:19;5.07;;;1.35;;
79017;SDS011;69817;44.694;37.774;2023-05-10T00:51:22;5.85;;;1.30;;
79017;SDS011;69817;44.694;37.774;2023-05-10T00:52:23;8.30;;;1.30;;
79017;SDS011;69817;44.694;37.774;2023-05-10T00:53:25;3.97;;;1.13;;
79017;SDS011;69817;44.694;37.774;2023-05-10T00:54:27;5.85;;;1.10;;
79017;SDS011;69817;44.694;37.774;2023-05-10T00:55:29;6.28;;;1.10;;
79017;SDS011;69817;44.694;37.774;2023-05-10T00:56:32;3.53;;;1.10;;
79017;SDS011;69817;44.694;37.774;2023-05-10T00:57:34;6.30;;;1.10;;
79017;SDS011;69817;44.694;37.774;2023-05-10T00:58:36;2.95;;;1.17;;
79017;SDS011;69817;44.694;37.774;2023-05-10T00:59:38;4.45;;;1.10;;
79017;SDS011;69817;44.694;37.774;2023-05-10T01:00:41;7.30;;;1.20;;
79017;SDS011;69817;44.694;37.774;2023-05-10T01:01:44;7.70;;;1.35;;
79017;SDS011;69817;44.694;37.774;2023-05-10T01:02:46;7.38;;;1.10;;
79017;SDS011;69817;44.694;37.774;2023-05-10T01:03:48;7.05;;;1.10;;
79017;SDS011;69817;44.694;37.774;2023-05-10T01:04:50;6.22;;;1.45;;
79017;SDS011;69817;44.694;37.774;2023-05-10T01:05:53;6.18;;;1.27;;
79017;SDS011;69817;44.694;37.774;2023-05-10T01:06:54;4.68;;;1.20;;
79017;SDS011;69817;44.694;37.774;2023-05-10T01:07:56;4.50;;;1.10;;
79017;SDS011;69817;44.694;37.774;2023-05-10T01:08:57;6.72;;;1.05;;
79017;SDS011;69817;44.694;37.774;2023-05-10T01:09:59;5.00;;;1.20;;
79017;SDS011;69817;44.694;37.774;2023-05-10T01:11:01;3.30;;;0.90;;
79017;SDS011;69817;44.694;37.774;2023-05-10T01:12:04;7.47;;;1.20;;
79017;SDS011;69817;44.694;37.774;2023-05-10T01:13:07;5.20;;;1.15;;
79017;SDS011;69817;44.694;37.774;2023-05-10T01:14:09;4.22;;;1.10;;
79017;SDS011;69817;44.694;37.774;2023-05-10T01:15:11;9.32;;;1.30;;
79017;SDS011;69817;44.694;37.774;2023-05-10T01:17:16;7.43;;;1.25;;
79017;SDS011;69817;44.694;37.774;2023-05-10T01:18:18;6.22;;;1.13;;
79017;SDS011;69817;44.694;37.774;2023-05-10T01:19:23;5.22;;;1.08;;
79017;SDS011;69817;44.694;37.774;2023-05-10T01:20:27;4.25;;;1.20;;
79017;SDS011;69817;44.694;37.774;2023-05-10T01:27:01;3.92;;;1.02;;
79017;SDS011;69817;44.694;37.774;2023-05-10T01:28:31;2.60;;;1.00;;
79017;SDS011;69817;44.694;37.774;2023-05-10T01:30:35;7.55;;;1.40;;
79017;SDS011;69817;44.694;37.774;2023-05-10T01:33:06;7.28;;;1.30;;
79017;SDS011;69817;44.694;37.774;2023-05-10T01:34:12;4.57;;;1.13;;
79017;SDS011;69817;44.694;37.774;2023-05-10T01:35:32;6.13;;;1.20;;
79017;SDS011;69817;44.694;37.774;2023-05-10T01:36:51;3.35;;;1.00;;
79017;SDS011;69817;44.694;37.774;2023-05-10T01:39:32;6.25;;;1.23;;
79017;SDS011;69817;44.694;37.774;2023-05-10T01:42:07;4.55;;;1.08;;
79017;SDS011;69817;44.694;37.774;2023-05-10T01:43:16;4.75;;;1.08;;
79017;SDS011;69817;44.694;37.774;2023-05-10T01:44:29;4.32;;;1.08;;
79017;SDS011;69817;44.694;37.774;2023-05-10T01:45:37;3.50;;;0.95;;
79017;SDS011;69817;44.694;37.774;2023-05-10T01:46:49;6.53;;;1.33;;
79017;SDS011;69817;44.694;37.774;2023-05-10T01:48:06;4.03;;;1.00;;
79017;SDS011;69817;44.694;37.774;2023-05-10T01:49:11;7.43;;;1.13;;
79017;SDS011;69817;44.694;37.774;2023-05-10T01:50:24;4.35;;;0.90;;
79017;SDS011;69817;44.694;37.774;2023-05-10T01:51:37;3.88;;;1.10;;
79017;SDS011;69817;44.694;37.774;2023-05-10T01:52:42;6.55;;;1.20;;
79017;SDS011;69817;44.694;37.774;2023-05-10T01:53:48;4.18;;;1.02;;
79017;SDS011;69817;44.694;37.774;2023-05-10T01:54:55;4.00;;;0.90;;
79017;SDS011;69817;44.694;37.774;2023-05-10T01:56:03;2.53;;;0.80;;
79017;SDS011;69817;44.694;37.774;2023-05-10T01:57:06;2.63;;;0.98;;
79017;SDS011;69817;44.694;37.774;2023-05-10T01:58:32;3.67;;;1.08;;
79017;SDS011;69817;44.694;37.774;2023-05-10T01:59:37;2.97;;;1.00;;
79017;SDS011;69817;44.694;37.774;2023-05-10T02:00:44;6.78;;;1.20;;
79017;SDS011;69817;44.694;37.774;2023-05-10T02:01:47;2.40;;;0.90;;
79017;SDS011;69817;44.694;37.774;2023-05-10T02:02:51;4.35;;;1.20;;
79017;SDS011;69817;44.694;37.774;2023-05-10T02:03:53;2.58;;;1.05;;
79017;SDS011;69817;44.694;37.774;2023-05-10T02:04:56;5.03;;;1.10;;
79017;SDS011;69817;44.694;37.774;2023-05-10T02:05:58;4.43;;;1.00;;
79017;SDS011;69817;44.694;37.774;2023-05-10T02:07:00;6.55;;;1.15;;
79017;SDS011;69817;44.694;37.774;2023-05-10T02:08:05;3.63;;;1.15;;
79017;SDS011;69817;44.694;37.774;2023-05-10T02:09:07;2.83;;;1.00;;
79017;SDS011;69817;44.694;37.774;2023-05-10T02:10:11;3.97;;;1.02;;
79017;SDS011;69817;44.694;37.774;2023-05-10T02:12:16;3.97;;;1.13;;
79017;SDS011;69817;44.694;37.774;2023-05-10T02:13:19;4.93;;;1.10;;
79017;SDS011;69817;44.694;37.774;2023-05-10T02:14:21;5.05;;;1.10;;
79017;SDS011;69817;44.694;37.774;2023-05-10T02:15:25;5.30;;;1.20;;
79017;SDS011;69817;44.694;37.774;2023-05-10T02:16:28;3.30;;;1.05;;
79017;SDS011;69817;44.694;37.774;2023-05-10T02:17:32;4.28;;;1.02;;
79017;SDS011;69817;44.694;37.774;2023-05-10T02:18:35;3.33;;;0.93;;
79017;SDS011;69817;44.694;37.774;2023-05-10T02:19:38;4.05;;;1.00;;
79017;SDS011;69817;44.694;37.774;2023-05-10T02:20:41;2.50;;;1.00;;
79017;SDS011;69817;44.694;37.774;2023-05-10T02:21:46;3.88;;;0.85;;
79017;SDS011;69817;44.694;37.774;2023-05-10T02:22:50;2.35;;;1.00;;
79017;SDS011;69817;44.694;37.774;2023-05-10T02:23:55;3.63;;;1.20;;
79017;SDS011;69817;44.694;37.774;2023-05-10T02:24:57;3.25;;;0.90;;
79017;SDS011;69817;44.694;37.774;2023-05-10T02:26:03;2.78;;;0.98;;
79017;SDS011;69817;44.694;37.774;2023-05-10T02:27:06;3.97;;;0.85;;
79017;SDS011;69817;44.694;37.774;2023-05-10T02:28:10;4.22;;;1.00;;
79017;SDS011;69817;44.694;37.774;2023-05-10T02:29:14;4.47;;;1.30;;
79017;SDS011;69817;44.694;37.774;2023-05-10T02:30:16;2.53;;;1.02;;
79017;SDS011;69817;44.694;37.774;2023-05-10T02:32:39;3.97;;;0.90;;
79017;SDS011;69817;44.694;37.774;2023-05-10T02:34:44;4.80;;;1.05;;
79017;SDS011;69817;44.694;37.774;2023-05-10T02:35:52;4.63;;;1.00;;
79017;SDS011;69817;44.694;37.774;2023-05-10T02:36:55;3.63;;;0.90;;
79017;SDS011;69817;44.694;37.774;2023-05-10T02:37:58;3.85;;;1.10;;
79017;SDS011;69817;44.694;37.774;2023-05-10T02:39:00;4.90;;;1.17;;
79017;SDS011;69817;44.694;37.774;2023-05-10T02:40:03;2.95;;;0.80;;
79017;SDS011;69817;44.694;37.774;2023-05-10T02:41:06;5.25;;;1.00;;
79017;SDS011;69817;44.694;37.774;2023-05-10T02:42:16;4.50;;;1.05;;
79017;SDS011;69817;44.694;37.774;2023-05-10T02:43:19;3.20;;;0.95;;
79017;SDS011;69817;44.694;37.774;2023-05-10T02:44:24;3.45;;;1.00;;
79017;SDS011;69817;44.694;37.774;2023-05-10T02:45:30;3.67;;;0.90;;
79017;SDS011;69817;44.694;37.774;2023-05-10T02:46:33;3.17;;;0.85;;
79017;SDS011;69817;44.694;37.774;2023-05-10T02:47:36;3.90;;;0.90;;
79017;SDS011;69817;44.694;37.774;2023-05-10T02:48:38;3.72;;;1.10;;
79017;SDS011;69817;44.694;37.774;2023-05-10T02:49:40;3.03;;;0.90;;
79017;SDS011;69817;44.694;37.774;2023-05-10T02:50:44;5.43;;;1.00;;
79017;SDS011;69817;44.694;37.774;2023-05-10T02:51:49;7.85;;;1.10;;
79017;SDS011;69817;44.694;37.774;2023-05-10T02:52:56;4.00;;;1.08;;
79017;SDS011;69817;44.694;37.774;2023-05-10T02:54:10;4.82;;;1.00;;
79017;SDS011;69817;44.694;37.774;2023-05-10T02:55:15;2.70;;;0.80;;
79017;SDS011;69817;44.694;37.774;2023-05-10T02:56:28;4.90;;;0.90;;
79017;SDS011;69817;44.694;37.774;2023-05-10T02:58:38;7.28;;;1.08;;
79017;SDS011;69817;44.694;37.774;2023-05-10T02:59:39;3.30;;;1.08;;
79017;SDS011;69817;44.694;37.774;2023-05-10T03:00:45;3.72;;;1.00;;
79017;SDS011;69817;44.694;37.774;2023-05-10T03:01:48;3.60;;;1.08;;
79017;SDS011;69817;44.694;37.774;2023-05-10T03:02:51;4.93;;;1.00;;
79017;SDS011;69817;44.694;37.774;2023-05-10T03:03:52;3.55;;;1.00;;
79017;SDS011;69817;44.694;37.774;2023-05-10T03:04:54;2.92;;;1.08;;
79017;SDS011;69817;44.694;37.774;2023-05-10T03:05:56;4.65;;;1.00;;
79017;SDS011;69817;44.694;37.774;2023-05-10T03:06:59;5.70;;;1.10;;
79017;SDS011;69817;44.694;37.774;2023-05-10T03:08:00;4.63;;;1.10;;
79017;SDS011;69817;44.694;37.774;2023-05-10T03:09:05;5.00;;;1.00;;
79017;SDS011;69817;44.694;37.774;2023-05-10T03:10:08;3.08;;;0.88;;
79017;SDS011;69817;44.694;37.774;2023-05-10T03:12:18;6.10;;;0.80;;
79017;SDS011;69817;44.694;37.774;2023-05-10T03:13:39;4.32;;;0.90;;
79017;SDS011;69817;44.694;37.774;2023-05-10T03:14:56;4.68;;;1.00;;
79017;SDS011;69817;44.694;37.774;2023-05-10T03:16:08;5.07;;;0.90;;
79017;SDS011;69817;44.694;37.774;2023-05-10T03:20:21;3.97;;;1.00;;
79017;SDS011;69817;44.694;37.774;2023-05-10T03:21:27;4.18;;;1.20;;
79017;SDS011;69817;44.694;37.774;2023-05-10T03:22:32;3.10;;;0.80;;
79017;SDS011;69817;44.694;37.774;2023-05-10T03:23:41;4.85;;;1.10;;
79017;SDS011;69817;44.694;37.774;2023-05-10T03:24:46;3.50;;;0.80;;
79017;SDS011;69817;44.694;37.774;2023-05-10T03:25:50;2.05;;;0.90;;
79017;SDS011;69817;44.694;37.774;2023-05-10T03:26:54;4.97;;;1.20;;
79017;SDS011;69817;44.694;37.774;2023-05-10T03:27:58;5.35;;;0.77;;
79017;SDS011;69817;44.694;37.774;2023-05-10T03:29:04;7.28;;;0.90;;
79017;SDS011;69817;44.694;37.774;2023-05-10T03:30:08;2.90;;;0.90;;
79017;SDS011;69817;44.694;37.774;2023-05-10T03:31:12;3.60;;;0.80;;
79017;SDS011;69817;44.694;37.774;2023-05-10T03:32:14;5.57;;;0.95;;
79017;SDS011;69817;44.694;37.774;2023-05-10T03:33:16;3.72;;;0.90;;
79017;SDS011;69817;44.694;37.774;2023-05-10T03:34:23;4.03;;;0.90;;
79017;SDS011;69817;44.694;37.774;2023-05-10T03:35:25;4.75;;;0.90;;
79017;SDS011;69817;44.694;37.774;2023-05-10T03:36:27;4.85;;;1.00;;
79017;SDS011;69817;44.694;37.774;2023-05-10T03:37:30;3.92;;;0.90;;
79017;SDS011;69817;44.694;37.774;2023-05-10T03:38:31;3.17;;;0.80;;
79017;SDS011;69817;44.694;37.774;2023-05-10T03:39:33;3.92;;;1.00;;
79017;SDS011;69817;44.694;37.774;2023-05-10T03:41:38;4.88;;;1.00;;
79017;SDS011;69817;44.694;37.774;2023-05-10T03:42:39;5.05;;;1.00;;
79017;SDS011;69817;44.694;37.774;2023-05-10T03:43:41;2.63;;;0.90;;
79017;SDS011;69817;44.694;37.774;2023-05-10T03:44:42;5.22;;;1.20;;
79017;SDS011;69817;44.694;37.774;2023-05-10T03:45:44;2.30;;;0.90;;
79017;SDS011;69817;44.694;37.774;2023-05-10T03:46:45;2.78;;;0.93;;
79017;SDS011;69817;44.694;37.774;2023-05-10T03:47:47;3.40;;;0.93;;
79017;SDS011;69817;44.694;37.774;2023-05-10T03:48:48;2.80;;;0.77;;
79017;SDS011;69817;44.694;37.774;2023-05-10T03:49:50;2.45;;;0.90;;
79017;SDS011;69817;44.694;37.774;2023-05-10T03:50:52;3.40;;;1.00;;
79017;SDS011;69817;44.694;37.774;2023-05-10T03:51:53;5.10;;;0.90;;
79017;SDS011;69817;44.694;37.774;2023-05-10T03:52:55;3.22;;;0.90;;
79017;SDS011;69817;44.694;37.774;2023-05-10T03:53:56;2.35;;;0.95;;
79017;SDS011;69817;44.694;37.774;2023-05-10T03:55:00;3.53;;;0.93;;
79017;SDS011;69817;44.694;37.774;2023-05-10T03:56:03;2.53;;;0.93;;
79017;SDS011;69817;44.694;37.774;2023-05-10T03:57:08;4.35;;;0.80;;
79017;SDS011;69817;44.694;37.774;2023-05-10T03:58:10;7.18;;;1.00;;
79017;SDS011;69817;44.694;37.774;2023-05-10T03:59:13;2.88;;;0.80;;
79017;SDS011;69817;44.694;37.774;2023-05-10T04:00:14;4.50;;;0.90;;
79017;SDS011;69817;44.694;37.774;2023-05-10T04:01:16;7.03;;;1.05;;
79017;SDS011;69817;44.694;37.774;2023-05-10T04:02:18;18.15;;;1.70;;
79017;SDS011;69817;44.694;37.774;2023-05-10T04:03:21;4.88;;;1.00;;
79017;SDS011;69817;44.694;37.774;2023-05-10T04:04:23;7.95;;;1.20;;
79017;SDS011;69817;44.694;37.774;2023-05-10T04:05:25;10.98;;;1.40;;
79017;SDS011;69817;44.694;37.774;2023-05-10T04:06:27;4.38;;;1.38;;
79017;SDS011;69817;44.694;37.774;2023-05-10T04:07:29;6.05;;;1.30;;
79017;SDS011;69817;44.694;37.774;2023-05-10T04:08:31;5.28;;;1.30;;
79017;SDS011;69817;44.694;37.774;2023-05-10T04:09:32;5.30;;;1.20;;
79017;SDS011;69817;44.694;37.774;2023-05-10T04:10:34;8.35;;;1.20;;
79017;SDS011;69817;44.694;37.774;2023-05-10T04:11:35;8.73;;;1.40;;
79017;SDS011;69817;44.694;37.774;2023-05-10T04:12:37;6.70;;;1.30;;
79017;SDS011;69817;44.694;37.774;2023-05-10T04:13:38;7.35;;;1.20;;
79017;SDS011;69817;44.694;37.774;2023-05-10T04:14:40;6.10;;;1.10;;
79017;SDS011;69817;44.694;37.774;2023-05-10T04:15:41;8.73;;;1.50;;
79017;SDS011;69817;44.694;37.774;2023-05-10T04:16:43;5.30;;;1.30;;
79017;SDS011;69817;44.694;37.774;2023-05-10T04:17:45;6.40;;;1.40;;
79017;SDS011;69817;44.694;37.774;2023-05-10T04:18:48;5.65;;;1.20;;
79017;SDS011;69817;44.694;37.774;2023-05-10T04:19:49;6.68;;;1.35;;
79017;SDS011;69817;44.694;37.774;2023-05-10T04:20:53;14.82;;;1.52;;
79017;SDS011;69817;44.694;37.774;2023-05-10T04:21:55;7.65;;;1.48;;
79017;SDS011;69817;44.694;37.774;2023-05-10T04:22:56;5.43;;;1.70;;
79017;SDS011;69817;44.694;37.774;2023-05-10T04:23:58;10.80;;;1.55;;
79017;SDS011;69817;44.694;37.774;2023-05-10T04:24:59;26.02;;;1.95;;
79017;SDS011;69817;44.694;37.774;2023-05-10T04:26:01;19.23;;;1.70;;
79017;SDS011;69817;44.694;37.774;2023-05-10T04:27:03;10.63;;;1.60;;
79017;SDS011;69817;44.694;37.774;2023-05-10T04:28:05;8.13;;;1.55;;
79017;SDS011;69817;44.694;37.774;2023-05-10T04:29:07;5.80;;;1.40;;
79017;SDS011;69817;44.694;37.774;2023-05-10T04:30:08;8.85;;;1.67;;
79017;SDS011;69817;44.694;37.774;2023-05-10T04:31:10;12.30;;;1.52;;
79017;SDS011;69817;44.694;37.774;2023-05-10T04:32:12;6.72;;;1.40;;
79017;SDS011;69817;44.694;37.774;2023-05-10T04:33:13;6.85;;;1.52;;
79017;SDS011;69817;44.694;37.774;2023-05-10T04:34:15;9.32;;;1.63;;
79017;SDS011;69817;44.694;37.774;2023-05-10T04:35:17;7.40;;;1.58;;
79017;SDS011;69817;44.694;37.774;2023-05-10T04:36:18;7.35;;;1.45;;
79017;SDS011;69817;44.694;37.774;2023-05-10T04:37:20;10.90;;;2.00;;
79017;SDS011;69817;44.694;37.774;2023-05-10T04:38:23;21.00;;;2.10;;
79017;SDS011;69817;44.694;37.774;2023-05-10T04:39:25;14.32;;;1.90;;
79017;SDS011;69817;44.694;37.774;2023-05-10T04:40:26;25.30;;;1.92;;
79017;SDS011;69817;44.694;37.774;2023-05-10T04:41:28;25.27;;;1.90;;
79017;SDS011;69817;44.694;37.774;2023-05-10T04:42:30;16.23;;;2.05;;
79017;SDS011;69817;44.694;37.774;2023-05-10T04:43:31;16.27;;;1.90;;
79017;SDS011;69817;44.694;37.774;2023-05-10T04:44:33;13.00;;;1.98;;
79017;SDS011;69817;44.694;37.774;2023-05-10T04:45:35;18.42;;;2.10;;
79017;SDS011;69817;44.694;37.774;2023-05-10T04:46:36;14.27;;;1.98;;
79017;SDS011;69817;44.694;37.774;2023-05-10T04:47:38;12.77;;;1.95;;
79017;SDS011;69817;44.694;37.774;2023-05-10T04:48:39;12.38;;;1.73;;
79017;SDS011;69817;44.694;37.774;2023-05-10T04:49:41;14.75;;;1.60;;
79017;SDS011;69817;44.694;37.774;2023-05-10T04:50:42;14.02;;;1.75;;
79017;SDS011;69817;44.694;37.774;2023-05-10T04:51:43;13.02;;;1.80;;
79017;SDS011;69817;44.694;37.774;2023-05-10T04:52:45;11.77;;;1.80;;
79017;SDS011;69817;44.694;37.774;2023-05-10T04:53:46;9.23;;;1.95;;
79017;SDS011;69817;44.694;37.774;2023-05-10T04:54:48;10.02;;;1.90;;
79017;SDS011;69817;44.694;37.774;2023-05-10T04:55:49;8.80;;;1.70;;
79017;SDS011;69817;44.694;37.774;2023-05-10T04:56:51;11.07;;;1.50;;
79017;SDS011;69817;44.694;37.774;2023-05-10T04:57:52;11.07;;;2.10;;
79017;SDS011;69817;44.694;37.774;2023-05-10T04:58:57;7.72;;;1.80;;
79017;SDS011;69817;44.694;37.774;2023-05-10T04:59:59;8.80;;;1.70;;
79017;SDS011;69817;44.694;37.774;2023-05-10T05:01:07;11.05;;;2.00;;
79017;SDS011;69817;44.694;37.774;2023-05-10T05:02:09;6.95;;;1.38;;
79017;SDS011;69817;44.694;37.774;2023-05-10T05:03:10;8.63;;;2.03;;
79017;SDS011;69817;44.694;37.774;2023-05-10T05:04:12;10.57;;;1.50;;
79017;SDS011;69817;44.694;37.774;2023-05-10T05:05:15;8.13;;;1.50;;
79017;SDS011;69817;44.694;37.774;2023-05-10T05:06:16;7.32;;;1.60;;
79017;SDS011;69817;44.694;37.774;2023-05-10T05:07:18;7.95;;;1.70;;
79017;SDS011;69817;44.694;37.774;2023-05-10T05:08:19;6.72;;;1.40;;
79017;SDS011;69817;44.694;37.774;2023-05-10T05:09:21;8.18;;;1.55;;
79017;SDS011;69817;44.694;37.774;2023-05-10T05:10:22;7.80;;;1.50;;
79017;SDS011;69817;44.694;37.774;2023-05-10T05:11:24;8.38;;;1.50;;
79017;SDS011;69817;44.694;37.774;2023-05-10T05:12:26;6.60;;;1.33;;
79017;SDS011;69817;44.694;37.774;2023-05-10T05:13:27;6.25;;;1.40;;
79017;SDS011;69817;44.694;37.774;2023-05-10T05:14:29;6.63;;;1.42;;
79017;SDS011;69817;44.694;37.774;2023-05-10T05:15:31;6.28;;;1.50;;
79017;SDS011;69817;44.694;37.774;2023-05-10T05:16:32;12.95;;;1.40;;
79017;SDS011;69817;44.694;37.774;2023-05-10T05:17:34;7.28;;;1.60;;
79017;SDS011;69817;44.694;37.774;2023-05-10T05:18:36;7.75;;;1.50;;
79017;SDS011;69817;44.694;37.774;2023-05-10T05:19:37;7.80;;;1.90;;
79017;SDS011;69817;44.694;37.774;2023-05-10T05:20:39;8.52;;;1.60;;
79017;SDS011;69817;44.694;37.774;2023-05-10T05:21:41;4.60;;;1.30;;
79017;SDS011;69817;44.694;37.774;2023-05-10T05:22:42;5.68;;;1.58;;
79017;SDS011;69817;44.694;37.774;2023-05-10T05:23:44;7.68;;;1.40;;
79017;SDS011;69817;44.694;37.774;2023-05-10T05:24:46;4.80;;;1.40;;
79017;SDS011;69817;44.694;37.774;2023-05-10T05:25:47;6.05;;;1.80;;
79017;SDS011;69817;44.694;37.774;2023-05-10T05:26:49;4.72;;;1.77;;
79017;SDS011;69817;44.694;37.774;2023-05-10T05:27:50;6.90;;;1.58;;
79017;SDS011;69817;44.694;37.774;2023-05-10T05:28:52;7.50;;;1.95;;
79017;SDS011;69817;44.694;37.774;2023-05-10T05:30:57;7.45;;;1.70;;
79017;SDS011;69817;44.694;37.774;2023-05-10T05:31:58;5.40;;;1.58;;
79017;SDS011;69817;44.694;37.774;2023-05-10T05:33:00;4.70;;;1.50;;
79017;SDS011;69817;44.694;37.774;2023-05-10T05:34:02;10.50;;;1.77;;
79017;SDS011;69817;44.694;37.774;2023-05-10T05:35:03;7.32;;;2.05;;
79017;SDS011;69817;44.694;37.774;2023-05-10T05:36:05;7.80;;;1.85;;
79017;SDS011;69817;44.694;37.774;2023-05-10T05:37:07;8.68;;;1.80;;
79017;SDS011;69817;44.694;37.774;2023-05-10T05:38:08;6.22;;;1.55;;
79017;SDS011;69817;44.694;37.774;2023-05-10T05:39:10;7.78;;;2.00;;
79017;SDS011;69817;44.694;37.774;2023-05-10T05:40:14;8.98;;;2.00;;
79017;SDS011;69817;44.694;37.774;2023-05-10T05:41:16;8.32;;;1.70;;
79017;SDS011;69817;44.694;37.774;2023-05-10T05:42:17;8.18;;;1.55;;
79017;SDS011;69817;44.694;37.774;2023-05-10T05:43:19;7.50;;;1.48;;
79017;SDS011;69817;44.694;37.774;2023-05-10T05:44:21;6.85;;;1.90;;
79017;SDS011;69817;44.694;37.774;2023-05-10T05:45:22;5.15;;;1.70;;
79017;SDS011;69817;44.694;37.774;2023-05-10T05:46:24;8.18;;;2.15;;
79017;SDS011;69817;44.694;37.774;2023-05-10T05:47:25;6.15;;;1.80;;
79017;SDS011;69817;44.694;37.774;2023-05-10T05:48:27;10.95;;;2.03;;
79017;SDS011;69817;44.694;37.774;2023-05-10T05:49:30;10.50;;;1.80;;
79017;SDS011;69817;44.694;37.774;2023-05-10T05:50:32;6.85;;;1.90;;
79017;SDS011;69817;44.694;37.774;2023-05-10T05:51:33;10.55;;;2.08;;
79017;SDS011;69817;44.694;37.774;2023-05-10T05:52:36;8.10;;;1.65;;
79017;SDS011;69817;44.694;37.774;2023-05-10T05:53:37;10.23;;;2.00;;
79017;SDS011;69817;44.694;37.774;2023-05-10T05:54:39;7.95;;;1.88;;
79017;SDS011;69817;44.694;37.774;2023-05-10T05:55:45;5.50;;;1.80;;
79017;SDS011;69817;44.694;37.774;2023-05-10T05:56:56;7.90;;;1.80;;
79017;SDS011;69817;44.694;37.774;2023-05-10T05:57:58;7.00;;;1.90;;
79017;SDS011;69817;44.694;37.774;2023-05-10T05:59:00;10.02;;;1.95;;
79017;SDS011;69817;44.694;37.774;2023-05-10T06:00:01;11.57;;;2.17;;
79017;SDS011;69817;44.694;37.774;2023-05-10T06:01:14;9.43;;;1.65;;
79017;SDS011;69817;44.694;37.774;2023-05-10T06:02:15;9.60;;;2.13;;
79017;SDS011;69817;44.694;37.774;2023-05-10T06:03:17;8.75;;;2.38;;
79017;SDS011;69817;44.694;37.774;2023-05-10T06:04:19;10.93;;;2.17;;
79017;SDS011;69817;44.694;37.774;2023-05-10T06:05:20;6.97;;;2.20;;
79017;SDS011;69817;44.694;37.774;2023-05-10T06:06:22;8.20;;;2.00;;
79017;SDS011;69817;44.694;37.774;2023-05-10T06:07:24;11.55;;;2.60;;
79017;SDS011;69817;44.694;37.774;2023-05-10T06:08:26;8.95;;;2.30;;
79017;SDS011;69817;44.694;37.774;2023-05-10T06:09:27;9.68;;;1.73;;
79017;SDS011;69817;44.694;37.774;2023-05-10T06:10:29;7.93;;;2.10;;
79017;SDS011;69817;44.694;37.774;2023-05-10T06:11:31;9.57;;;2.00;;
79017;SDS011;69817;44.694;37.774;2023-05-10T06:12:35;10.95;;;2.33;;
79017;SDS011;69817;44.694;37.774;2023-05-10T06:13:37;9.30;;;2.05;;
79017;SDS011;69817;44.694;37.774;2023-05-10T06:14:38;8.55;;;2.00;;
79017;SDS011;69817;44.694;37.774;2023-05-10T06:15:40;10.60;;;2.17;;
79017;SDS011;69817;44.694;37.774;2023-05-10T06:16:41;10.38;;;2.30;;
79017;SDS011;69817;44.694;37.774;2023-05-10T06:17:43;10.70;;;2.17;;
79017;SDS011;69817;44.694;37.774;2023-05-10T06:18:45;10.48;;;2.30;;
79017;SDS011;69817;44.694;37.774;2023-05-10T06:19:46;13.40;;;2.40;;
79017;SDS011;69817;44.694;37.774;2023-05-10T06:20:49;12.60;;;2.10;;
79017;SDS011;69817;44.694;37.774;2023-05-10T06:21:50;9.27;;;2.15;;
79017;SDS011;69817;44.694;37.774;2023-05-10T06:22:52;11.18;;;2.42;;
79017;SDS011;69817;44.694;37.774;2023-05-10T06:23:53;10.98;;;2.28;;
79017;SDS011;69817;44.694;37.774;2023-05-10T06:24:55;11.43;;;2.13;;
79017;SDS011;69817;44.694;37.774;2023-05-10T06:25:57;8.20;;;2.72;;
79017;SDS011;69817;44.694;37.774;2023-05-10T06:26:58;9.88;;;2.58;;
79017;SDS011;69817;44.694;37.774;2023-05-10T06:28:01;12.07;;;2.58;;
79017;SDS011;69817;44.694;37.774;2023-05-10T06:29:02;11.75;;;2.80;;
79017;SDS011;69817;44.694;37.774;2023-05-10T06:30:04;9.07;;;2.60;;
79017;SDS011;69817;44.694;37.774;2023-05-10T06:31:06;8.88;;;2.70;;
79017;SDS011;69817;44.694;37.774;2023-05-10T06:32:08;9.43;;;2.40;;
79017;SDS011;69817;44.694;37.774;2023-05-10T06:33:09;9.60;;;2.03;;
79017;SDS011;69817;44.694;37.774;2023-05-10T06:34:11;16.25;;;2.55;;
79017;SDS011;69817;44.694;37.774;2023-05-10T06:35:13;7.65;;;2.30;;
79017;SDS011;69817;44.694;37.774;2023-05-10T06:36:14;7.60;;;1.92;;
79017;SDS011;69817;44.694;37.774;2023-05-10T06:37:16;11.73;;;2.30;;
79017;SDS011;69817;44.694;37.774;2023-05-10T06:38:17;12.85;;;2.17;;
79017;SDS011;69817;44.694;37.774;2023-05-10T06:39:19;10.07;;;2.15;;